Sugar Land Regional Airport Houston US
ICAO: KSGR
IATA: SGR
Category: Medium
Scheduled Services: No

Elevation: 82 ft
TransAlt. 18000 ft.

Airport Communications:
HOUSTON APP/DEP:123.8
ASOS:118.125
CTAF:118.65
GND/CLNC DEL:121.4
TWR:118.65
UNICOM:122.95

KSGR Zoom In..

If Map Doesn't Load, Click Here

Runways:

(A) RW 17 length 8000 ft width 100 ft
---- / hdg 170

(B) RW 35 length 8000 ft width 100 ft
ILS 110.70 / hdg 350

Location; KSGR
Day. 26 / Time. 09.53 Zulu
* Altimeter: 29.97
* Temperature: 25° c. 77°f.
* Wind from: 000° Speed 00 kn.
Dewpoint: 24° c.
Visibility: 9 Statute Miles.
Clouds: Few 2200 ft.

KSGR 260953Z AUTO 00000KT 9SM FEW022 25/24 A2997 RMK AO2 LTG DSNT E SLP148 T02500239


Wind - Calm.

 
 
jpsmedia.com for Web Design worldairports.se 2018   terms of use